Aviation Digital Data Service (ADDS)

Output produced by TAFs form (0401 UTC 23 September 2017)
found at http://www.aviationweather.gov/adds/tafs/
 
KSBY 222320Z 2300/2324 31005KT P6SM BKN250 
     FM230800 34001KT P6SM BKN120 
     FM231800 33007KT 6SM BR BKN250